createdAt,value
2023-05-16T00:35:33.288Z,55.23
2023-05-16T00:38:28.402Z,54.21
2023-05-16T00:40:56.418Z,52.95
2023-05-16T00:44:20.149Z,54.04
2023-05-16T00:46:50.390Z,55.35
2023-05-16T00:49:26.370Z,54.08
2023-05-16T00:51:55.551Z,53.38
2023-05-16T01:01:11.935Z,52.32
2023-05-16T01:04:20.271Z,54.17
2023-05-16T01:18:42.296Z,55.71
2023-05-16T01:21:16.303Z,53.82
2023-05-16T01:31:39.008Z,55.70
2023-05-16T01:34:08.999Z,56.53
2023-05-16T01:36:45.417Z,53.68
2023-05-16T01:39:21.670Z,55.94
2023-05-16T01:41:56.563Z,55.25
2023-05-16T01:44:30.818Z,55.90
2023-05-16T01:47:03.515Z,54.61
2023-05-16T01:53:09.094Z,55.96
2023-05-16T01:55:53.869Z,56.56
2023-05-16T01:58:26.136Z,55.73
2023-05-16T02:00:54.759Z,54.64
2023-05-16T02:03:33.395Z,56.01
2023-05-16T02:09:31.534Z,55.06
2023-05-16T02:12:02.461Z,52.94
2023-05-16T02:14:45.133Z,52.40
2023-05-16T02:17:35.229Z,53.90
2023-05-16T02:20:07.090Z,56.18
2023-05-16T02:22:36.148Z,53.05
2023-05-16T02:25:19.145Z,55.58
2023-05-16T02:28:06.820Z,55.66
2023-05-16T02:30:35.043Z,54.55
2023-05-16T02:33:20.215Z,53.88
2023-05-16T02:35:48.298Z,55.78
2023-05-16T02:38:36.034Z,54.71
2023-05-16T02:41:24.975Z,56.01
2023-05-16T02:48:04.939Z,57.26
2023-05-16T02:51:11.042Z,55.12
2023-05-16T02:54:01.473Z,56.02
2023-05-16T02:56:50.199Z,57.52
2023-05-16T02:59:36.263Z,58.55
2023-05-16T03:02:05.127Z,56.90
2023-05-16T03:04:35.860Z,54.03
2023-05-16T03:07:41.006Z,56.47
2023-05-16T03:10:32.912Z,57.57
2023-05-16T03:13:59.661Z,58.18
2023-05-16T03:16:29.309Z,57.78
2023-05-16T03:18:57.565Z,54.51
2023-05-16T03:21:27.362Z,56.20
2023-05-16T03:23:56.235Z,55.04
2023-05-16T03:26:24.578Z,56.53
2023-05-16T03:28:53.096Z,53.69
2023-05-16T03:31:30.543Z,53.88
2023-05-16T03:34:18.610Z,55.11
2023-05-16T03:36:51.056Z,55.45
2023-05-16T03:39:35.511Z,55.85
2023-05-16T03:42:43.324Z,55.74
2023-05-16T03:45:12.254Z,54.96
2023-05-16T03:47:41.114Z,55.84
2023-05-16T03:50:11.027Z,55.81
2023-05-16T03:52:40.985Z,54.61
2023-05-16T03:55:09.689Z,55.53
2023-05-16T03:58:10.304Z,55.41
2023-05-16T04:01:00.253Z,54.63
2023-05-16T04:03:44.699Z,54.31
2023-05-16T04:06:41.118Z,55.25
2023-05-16T04:09:22.165Z,57.60
2023-05-16T04:11:51.766Z,54.76
2023-05-16T04:14:20.004Z,55.15
2023-05-16T04:16:48.348Z,54.02
2023-05-16T04:23:04.454Z,55.52
2023-05-16T04:25:55.353Z,54.93
2023-05-16T04:28:25.200Z,55.26
2023-05-16T04:31:06.445Z,53.95
2023-05-16T04:33:50.520Z,54.88
2023-05-16T04:36:18.759Z,54.91
2023-05-16T04:38:47.651Z,53.74
2023-05-16T04:41:16.134Z,53.77
2023-05-16T04:43:45.751Z,53.66
2023-05-16T04:46:15.564Z,53.50
2023-05-16T04:48:43.585Z,53.45
2023-05-16T04:51:57.993Z,53.08
2023-05-16T04:54:33.729Z,53.41
2023-05-16T04:57:02.629Z,53.65
2023-05-16T04:59:32.551Z,52.95
2023-05-16T05:02:00.833Z,55.64
2023-05-16T05:04:29.293Z,54.57
2023-05-16T05:06:57.963Z,53.49
2023-05-16T05:09:26.111Z,55.41
2023-05-16T05:11:54.441Z,53.52
2023-05-16T05:14:22.439Z,53.09
2023-05-16T05:16:52.023Z,53.35
2023-05-16T05:19:20.450Z,54.64
2023-05-16T05:21:48.574Z,53.91
2023-05-16T05:24:16.553Z,53.58
2023-05-16T05:26:47.353Z,53.83
2023-05-16T05:29:16.133Z,53.35
2023-05-16T05:31:44.823Z,53.49
2023-05-16T05:34:14.325Z,53.43
2023-05-16T05:36:45.289Z,54.46
2023-05-16T05:39:32.711Z,53.57
2023-05-16T05:42:03.993Z,53.17
2023-05-16T05:44:32.221Z,54.84
2023-05-16T05:47:00.610Z,53.72
2023-05-16T05:49:30.416Z,53.16
2023-05-16T05:51:59.008Z,54.36
2023-05-16T05:54:27.305Z,52.30
2023-05-16T05:56:55.352Z,53.14
2023-05-16T05:59:23.330Z,53.37
2023-05-16T06:01:52.987Z,53.96
2023-05-16T06:04:21.638Z,54.52
2023-05-16T06:06:51.091Z,53.35
2023-05-16T06:09:19.349Z,53.83
2023-05-16T06:11:48.048Z,53.17
2023-05-16T06:14:16.532Z,52.50
2023-05-16T06:16:44.802Z,54.08
2023-05-16T06:19:16.093Z,52.90
2023-05-16T06:21:44.867Z,53.40
2023-05-16T06:24:14.188Z,52.70
2023-05-16T06:26:42.461Z,53.38
2023-05-16T06:29:10.484Z,53.87
2023-05-16T06:31:38.675Z,53.64
2023-05-16T06:34:07.010Z,54.68
2023-05-16T06:36:35.501Z,54.29
2023-05-16T06:39:04.910Z,53.86
2023-05-16T06:41:34.863Z,54.64
2023-05-16T06:44:05.033Z,54.29
2023-05-16T06:46:34.623Z,53.95
2023-05-16T06:49:03.637Z,53.37
2023-05-16T06:51:32.144Z,52.98
2023-05-16T06:54:02.784Z,52.90
2023-05-16T06:56:32.689Z,53.79
2023-05-16T06:59:02.560Z,52.96
2023-05-16T07:01:30.618Z,53.71
2023-05-16T07:04:01.384Z,52.61
2023-05-16T07:06:30.522Z,52.40
2023-05-16T07:08:58.855Z,52.74
2023-05-16T07:11:27.258Z,52.71
2023-05-16T07:13:55.649Z,52.75
2023-05-16T07:16:28.666Z,52.37
2023-05-16T07:18:57.380Z,52.48
2023-05-16T07:21:26.416Z,52.24
2023-05-16T07:23:55.933Z,52.69
2023-05-16T07:26:24.718Z,52.38
2023-05-16T07:28:53.360Z,52.08
2023-05-16T07:31:21.875Z,53.08
2023-05-16T07:33:51.731Z,53.23
2023-05-16T07:36:19.753Z,52.52
2023-05-16T07:39:09.092Z,53.00
2023-05-16T07:41:37.441Z,52.82
2023-05-16T07:44:05.553Z,52.08
2023-05-16T07:46:33.815Z,51.59
2023-05-16T07:49:03.563Z,52.04
2023-05-16T07:51:43.954Z,52.58
2023-05-16T07:54:12.768Z,52.59
2023-05-16T08:00:32.861Z,53.15
2023-05-16T08:03:02.338Z,53.50
2023-05-16T08:05:32.155Z,53.04
2023-05-16T08:08:00.644Z,52.64
2023-05-16T08:10:31.825Z,51.88
2023-05-16T08:13:09.824Z,52.53
2023-05-16T08:15:38.186Z,53.06
2023-05-16T08:18:14.310Z,52.26
2023-05-16T08:24:19.235Z,52.10
2023-05-16T08:26:47.813Z,51.56
2023-05-16T08:29:15.953Z,51.37
2023-05-16T08:31:44.182Z,51.17
2023-05-16T08:34:15.081Z,51.21
2023-05-16T08:36:44.875Z,50.74
2023-05-16T08:39:15.803Z,51.07
2023-05-16T08:41:44.213Z,50.68
2023-05-16T08:44:13.292Z,50.71
2023-05-16T08:46:42.443Z,50.68
2023-05-16T08:49:15.216Z,50.44
2023-05-16T08:51:47.571Z,50.35
2023-05-16T08:54:22.992Z,50.47
2023-05-16T08:56:51.988Z,50.55
2023-05-16T08:59:20.719Z,50.13
2023-05-16T09:02:05.945Z,49.92
2023-05-16T09:04:34.795Z,49.51
2023-05-16T09:07:04.889Z,50.08
2023-05-16T09:09:33.259Z,49.59
2023-05-16T09:12:01.940Z,49.75
2023-05-16T09:14:30.967Z,50.04
2023-05-16T09:17:06.583Z,49.98
2023-05-16T09:19:40.185Z,49.83
2023-05-16T09:22:10.613Z,49.58
2023-05-16T09:24:40.629Z,49.66
2023-05-16T09:27:10.518Z,49.39
2023-05-16T09:29:41.711Z,49.24
2023-05-16T09:32:18.587Z,49.29
2023-05-16T09:34:49.229Z,49.21
2023-05-16T09:37:20.816Z,49.14
2023-05-16T09:39:50.805Z,48.71
2023-05-16T09:42:20.336Z,48.65
2023-05-16T09:44:50.637Z,49.11
2023-05-16T09:47:20.473Z,48.86
2023-05-16T09:49:53.204Z,48.68
2023-05-16T09:52:22.703Z,48.65
2023-05-16T09:54:51.181Z,48.61
2023-05-16T09:57:20.438Z,48.13
2023-05-16T09:59:48.827Z,48.35
2023-05-16T10:02:17.469Z,48.44
2023-05-16T10:04:46.572Z,48.67
2023-05-16T10:07:15.232Z,48.82
2023-05-16T10:09:45.014Z,48.35
2023-05-16T10:12:38.268Z,47.63
2023-05-16T10:15:11.544Z,48.03
2023-05-16T10:17:45.466Z,47.91
2023-05-16T10:20:14.502Z,47.56
2023-05-16T10:22:45.938Z,47.30
2023-05-16T10:25:44.508Z,47.04
2023-05-16T10:28:14.318Z,45.71
2023-05-16T10:30:44.301Z,46.50
2023-05-16T10:33:14.056Z,47.02
2023-05-16T10:35:42.907Z,47.80
2023-05-16T10:38:13.529Z,47.67
2023-05-16T10:40:44.237Z,47.37
2023-05-16T10:43:12.389Z,47.37
2023-05-16T10:45:43.448Z,46.32
2023-05-16T10:48:15.455Z,46.05
2023-05-16T10:50:45.281Z,45.77
2023-05-16T10:53:19.649Z,46.26
2023-05-16T10:56:08.599Z,45.65
2023-05-16T10:58:48.847Z,43.14
2023-05-16T11:01:19.214Z,44.24
2023-05-16T11:04:11.222Z,44.93
2023-05-16T11:06:51.376Z,42.63
2023-05-16T11:09:28.206Z,42.90
2023-05-16T11:12:03.338Z,43.20
2023-05-16T11:14:38.392Z,42.93
2023-05-16T11:17:11.988Z,42.40
2023-05-16T11:19:43.816Z,43.54
2023-05-16T11:22:23.497Z,42.80
2023-05-16T11:24:54.189Z,41.74
2023-05-16T11:27:29.005Z,42.63
2023-05-16T11:30:03.668Z,41.54
2023-05-16T11:32:35.038Z,42.76
2023-05-16T11:35:04.690Z,42.04
2023-05-16T11:37:32.978Z,41.93
2023-05-16T11:40:02.306Z,43.00
2023-05-16T11:42:34.008Z,42.60
2023-05-16T11:45:07.509Z,42.39
2023-05-16T11:47:40.274Z,41.44
2023-05-16T11:50:12.429Z,40.83
2023-05-16T11:52:41.360Z,41.52
2023-05-16T11:55:12.616Z,41.36
2023-05-16T11:57:45.332Z,41.05
2023-05-16T12:00:23.632Z,40.08
2023-05-16T12:02:52.173Z,37.92
2023-05-16T12:05:25.480Z,41.50
2023-05-16T12:07:56.266Z,40.71
2023-05-16T12:10:25.605Z,39.96
2023-05-16T12:12:56.843Z,40.59
2023-05-16T12:15:24.971Z,40.37
2023-05-16T12:17:54.015Z,40.30
2023-05-16T12:20:22.146Z,40.70
2023-05-16T12:22:50.294Z,37.79
2023-05-16T12:25:29.395Z,38.91
2023-05-16T12:28:01.130Z,35.98
2023-05-16T12:30:31.622Z,37.45
2023-05-16T12:33:04.182Z,38.71
2023-05-16T12:35:35.827Z,38.85
2023-05-16T12:38:05.714Z,38.62
2023-05-16T12:40:34.304Z,37.80
2023-05-16T12:43:04.549Z,38.31
2023-05-16T12:45:35.464Z,38.54
2023-05-16T12:48:07.896Z,38.70
2023-05-16T12:50:36.816Z,38.31
2023-05-16T12:53:12.884Z,37.40
2023-05-16T12:55:41.335Z,36.72
2023-05-16T12:58:12.660Z,37.50
2023-05-16T13:00:41.121Z,37.82
2023-05-16T13:03:09.640Z,36.22
2023-05-16T13:05:37.849Z,36.31
2023-05-16T13:08:06.351Z,36.20
2023-05-16T13:10:40.739Z,36.03
2023-05-16T13:13:08.984Z,37.87
2023-05-16T13:15:38.957Z,38.07
2023-05-16T13:18:07.414Z,37.71
2023-05-16T13:20:35.571Z,38.02
2023-05-16T13:23:09.447Z,37.95
2023-05-16T13:25:37.499Z,37.51
2023-05-16T13:28:06.176Z,37.48
2023-05-16T13:30:35.504Z,36.88
2023-05-16T13:33:05.145Z,36.81
2023-05-16T13:35:33.682Z,36.43
2023-05-16T13:38:01.894Z,35.58
2023-05-16T13:40:30.130Z,33.86
2023-05-16T13:42:58.980Z,36.42
2023-05-16T13:45:27.695Z,36.24
2023-05-16T13:47:56.405Z,35.67
2023-05-16T13:50:33.276Z,36.17
2023-05-16T13:53:15.387Z,35.86
2023-05-16T13:55:44.059Z,33.55
2023-05-16T13:58:12.226Z,35.48
2023-05-16T14:00:45.284Z,33.30
2023-05-16T14:03:14.513Z,34.93
2023-05-16T14:05:44.024Z,34.73
2023-05-16T14:08:12.209Z,33.97
2023-05-16T14:10:40.666Z,33.57
2023-05-16T14:13:08.753Z,34.73
2023-05-16T14:15:36.992Z,34.41
2023-05-16T14:18:06.289Z,34.45
2023-05-16T14:20:41.390Z,34.90
2023-05-16T14:23:11.212Z,32.48
2023-05-16T14:25:39.475Z,33.74
2023-05-16T14:28:07.759Z,35.49
2023-05-16T14:30:37.393Z,34.35
2023-05-16T14:33:13.144Z,34.42
2023-05-16T14:35:41.653Z,34.01
2023-05-16T14:38:11.166Z,34.13
2023-05-16T14:40:42.207Z,33.07
2023-05-16T14:43:10.587Z,32.49
2023-05-16T14:45:42.529Z,32.89
2023-05-16T14:48:18.765Z,32.56
2023-05-16T14:50:47.586Z,33.84
2023-05-16T14:53:17.967Z,33.61
2023-05-16T14:55:46.345Z,33.55
2023-05-16T14:58:14.427Z,32.93
2023-05-16T15:00:42.533Z,32.68
2023-05-16T15:03:12.576Z,30.23
2023-05-16T15:05:42.528Z,31.54
2023-05-16T15:08:11.075Z,31.80
2023-05-16T15:10:41.002Z,31.37
2023-05-16T15:13:09.384Z,29.83
2023-05-16T15:15:39.680Z,31.60
2023-05-16T15:18:07.962Z,30.54
2023-05-16T15:20:40.454Z,30.41
2023-05-16T15:23:09.594Z,29.60
2023-05-16T15:25:38.056Z,29.73
2023-05-16T15:28:07.672Z,30.44
2023-05-16T15:30:36.123Z,29.78
2023-05-16T15:33:04.291Z,27.17
2023-05-16T15:35:32.546Z,28.82
2023-05-16T15:38:01.853Z,30.81
2023-05-16T15:40:29.980Z,30.69
2023-05-16T15:42:58.094Z,27.59
2023-05-16T15:45:28.223Z,27.21
2023-05-16T15:48:42.872Z,26.78
2023-05-16T15:51:22.590Z,30.36
2023-05-16T15:53:50.695Z,30.95
2023-05-16T15:56:19.487Z,31.55
2023-05-16T15:58:47.964Z,30.78
2023-05-16T16:01:17.733Z,31.44
2023-05-16T16:03:46.543Z,31.54
2023-05-16T16:06:14.995Z,31.28
2023-05-16T16:08:43.209Z,31.56
2023-05-16T16:11:11.583Z,31.58
2023-05-16T16:13:39.776Z,30.69
2023-05-16T16:16:08.424Z,31.08
2023-05-16T16:18:38.440Z,30.84
2023-05-16T16:21:24.480Z,29.15
2023-05-16T16:23:52.958Z,29.29
2023-05-16T16:26:21.350Z,29.90
2023-05-16T16:28:50.245Z,29.23
2023-05-16T16:31:18.593Z,29.88
2023-05-16T16:33:49.208Z,29.62
2023-05-16T16:36:22.684Z,28.39
2023-05-16T16:38:51.136Z,29.94
2023-05-16T16:41:19.223Z,29.89
2023-05-16T16:43:47.699Z,29.66
2023-05-16T16:46:16.510Z,27.97
2023-05-16T16:48:44.575Z,27.81
2023-05-16T16:51:13.878Z,28.00
2023-05-16T16:53:42.779Z,28.07
2023-05-16T16:56:10.975Z,27.50
2023-05-16T16:58:39.074Z,27.13
2023-05-16T17:01:07.867Z,28.67
2023-05-16T17:03:36.248Z,26.56
2023-05-16T17:06:05.203Z,24.99
2023-05-16T17:08:35.530Z,27.85
2023-05-16T17:11:05.225Z,28.01
2023-05-16T17:13:37.494Z,28.53
2023-05-16T17:16:06.396Z,26.26
2023-05-16T17:18:36.631Z,25.53
2023-05-16T17:21:04.831Z,27.10
2023-05-16T17:23:33.600Z,26.03
2023-05-16T17:26:03.445Z,26.25
2023-05-16T17:28:32.659Z,25.77
2023-05-16T17:31:04.069Z,28.34
2023-05-16T17:33:32.903Z,26.90
2023-05-16T17:36:01.041Z,28.15
2023-05-16T17:38:29.830Z,29.01
2023-05-16T17:40:58.069Z,28.71
2023-05-16T17:43:27.550Z,27.40
2023-05-16T17:45:55.961Z,27.59
2023-05-16T17:48:24.704Z,28.41
2023-05-16T17:50:52.994Z,28.63
2023-05-16T17:53:21.128Z,28.52
2023-05-16T17:55:49.670Z,27.26
2023-05-16T17:58:17.946Z,29.02
2023-05-16T18:00:48.554Z,29.10
2023-05-16T18:03:17.654Z,29.09
2023-05-16T18:05:46.456Z,29.60
2023-05-16T18:08:14.667Z,29.66
2023-05-16T18:10:51.675Z,30.08
2023-05-16T18:13:20.781Z,29.92
2023-05-16T18:15:50.760Z,30.07
2023-05-16T18:18:19.219Z,29.81
2023-05-16T18:20:47.633Z,30.47
2023-05-16T18:23:16.301Z,30.74
2023-05-16T18:25:44.402Z,30.96
2023-05-16T18:28:12.377Z,31.17
2023-05-16T18:30:41.066Z,31.01
2023-05-16T18:33:10.632Z,31.34
2023-05-16T18:35:38.865Z,31.33
2023-05-16T18:38:10.493Z,31.39
2023-05-16T18:40:47.721Z,31.95
2023-05-16T18:43:16.279Z,32.08
2023-05-16T18:45:44.475Z,32.73
2023-05-16T18:48:14.105Z,32.63
2023-05-16T18:50:42.618Z,32.76
2023-05-16T18:53:10.732Z,33.28
2023-05-16T18:55:38.845Z,33.80
2023-05-16T18:58:08.233Z,34.27
2023-05-16T19:00:36.713Z,34.28
2023-05-16T19:03:04.949Z,34.36
2023-05-16T19:05:35.330Z,34.50
2023-05-16T19:08:03.769Z,35.84
2023-05-16T19:10:32.433Z,35.84
2023-05-16T19:13:07.052Z,35.32
2023-05-16T19:15:36.036Z,35.96
2023-05-16T19:18:05.025Z,36.69
2023-05-16T19:20:36.107Z,36.71
2023-05-16T19:23:04.463Z,36.42
2023-05-16T19:25:32.644Z,37.09
2023-05-16T19:28:00.944Z,36.85
2023-05-16T19:30:29.670Z,35.78
2023-05-16T19:32:58.043Z,36.94
2023-05-16T19:35:26.876Z,35.51
2023-05-16T19:37:57.012Z,36.16
2023-05-16T19:40:25.073Z,36.26
2023-05-16T19:42:53.192Z,36.11
2023-05-16T19:45:21.855Z,37.41
2023-05-16T19:47:50.076Z,37.21
2023-05-16T19:50:19.331Z,37.90
2023-05-16T19:52:49.350Z,38.22
2023-05-16T19:55:19.167Z,37.85
2023-05-16T19:57:47.358Z,37.71
2023-05-16T20:00:16.681Z,38.29
2023-05-16T20:02:45.368Z,37.42
2023-05-16T20:05:14.666Z,37.82
2023-05-16T20:07:42.892Z,37.46
2023-05-16T20:10:11.460Z,38.45
2023-05-16T20:12:41.059Z,38.59
2023-05-16T20:15:11.078Z,38.25
2023-05-16T20:17:40.438Z,37.24
2023-05-16T20:20:10.102Z,37.51
2023-05-16T20:22:41.267Z,38.45
2023-05-16T20:25:11.787Z,39.01
2023-05-16T20:27:41.513Z,38.13
2023-05-16T20:30:10.881Z,37.54
2023-05-16T20:32:39.191Z,39.20
2023-05-16T20:35:10.157Z,39.07
2023-05-16T20:37:39.295Z,38.06
2023-05-16T20:40:08.739Z,38.11
2023-05-16T20:42:37.230Z,39.54
2023-05-16T20:45:08.037Z,38.58
2023-05-16T20:47:36.264Z,39.03
2023-05-16T20:50:05.198Z,38.55
2023-05-16T20:52:33.697Z,38.22
2023-05-16T20:55:02.384Z,38.39
2023-05-16T20:57:31.755Z,39.15
2023-05-16T21:00:00.024Z,38.94
2023-05-16T21:02:29.754Z,39.17
2023-05-16T21:05:14.386Z,40.09
2023-05-16T21:07:51.627Z,38.84
2023-05-16T21:10:19.958Z,39.56
2023-05-16T21:12:48.337Z,40.11
2023-05-16T21:15:16.597Z,39.10
2023-05-16T21:17:46.119Z,40.70
2023-05-16T21:20:15.624Z,39.76
2023-05-16T21:22:43.813Z,40.12
2023-05-16T21:25:12.103Z,41.62
2023-05-16T21:27:40.937Z,40.50
2023-05-16T21:30:10.256Z,39.42
2023-05-16T21:32:38.395Z,40.35
2023-05-16T21:35:10.636Z,39.65
2023-05-16T21:37:38.721Z,41.30
2023-05-16T21:40:09.583Z,40.12
2023-05-16T21:42:38.173Z,41.25
2023-05-16T21:45:12.619Z,41.46
2023-05-16T21:47:41.091Z,41.78
2023-05-16T21:50:11.472Z,40.75
2023-05-16T21:52:40.709Z,41.80
2023-05-16T21:55:09.813Z,40.97
2023-05-16T21:57:38.275Z,40.82
2023-05-16T22:00:09.789Z,40.30
2023-05-16T22:02:39.792Z,42.40
2023-05-16T22:05:09.509Z,42.20
2023-05-16T22:07:39.254Z,41.94
2023-05-16T22:10:10.819Z,42.42
2023-05-16T22:12:39.640Z,42.70
2023-05-16T22:15:10.068Z,42.37
2023-05-16T22:17:38.308Z,43.20
2023-05-16T22:20:08.162Z,42.78
2023-05-16T22:22:36.948Z,41.61
2023-05-16T22:25:07.479Z,41.55
2023-05-16T22:27:35.552Z,42.87
2023-05-16T22:30:04.479Z,43.30
2023-05-16T22:32:32.816Z,42.39
2023-05-16T22:35:02.138Z,42.99
2023-05-16T22:37:31.402Z,43.42
2023-05-16T22:39:59.476Z,42.31
2023-05-16T22:42:28.808Z,43.59
2023-05-16T22:44:57.153Z,42.06
2023-05-16T22:47:25.402Z,43.79
2023-05-16T22:49:53.383Z,43.13
2023-05-16T22:52:22.172Z,42.49
2023-05-16T22:54:50.225Z,44.63
2023-05-16T22:57:18.310Z,42.94
2023-05-16T22:59:48.096Z,42.44
2023-05-16T23:02:16.287Z,43.44
2023-05-16T23:04:44.503Z,43.58
2023-05-16T23:07:13.153Z,44.26
2023-05-16T23:09:41.257Z,44.14
2023-05-16T23:12:09.963Z,44.49
2023-05-16T23:14:38.750Z,42.75
2023-05-16T23:17:08.326Z,42.69
2023-05-16T23:19:36.456Z,45.27
2023-05-16T23:22:06.168Z,45.49
2023-05-16T23:24:34.181Z,45.42
2023-05-16T23:27:02.292Z,43.18
2023-05-16T23:29:30.632Z,45.51
2023-05-16T23:31:58.915Z,44.95
2023-05-16T23:34:28.418Z,44.79
2023-05-16T23:36:56.941Z,45.77
2023-05-16T23:39:25.311Z,46.14
2023-05-16T23:41:53.441Z,44.47
2023-05-16T23:44:21.910Z,43.89
2023-05-16T23:46:49.958Z,45.65
2023-05-16T23:49:18.084Z,45.88
2023-05-16T23:51:57.517Z,44.12
2023-05-16T23:54:26.547Z,44.47
2023-05-16T23:56:54.883Z,43.99
2023-05-16T23:59:23.022Z,43.92
